sensor_id;sensor_type;location;lat;lon;timestamp;P1;durP1;ratioP1;P2;durP2;ratioP2
10715;SDS011;5409;42.620;23.316;2023-03-01T00:00:38;7.55;;;6.18;;
10715;SDS011;5409;42.620;23.316;2023-03-01T00:03:04;9.52;;;7.07;;
10715;SDS011;5409;42.620;23.316;2023-03-01T00:05:31;7.60;;;6.38;;
10715;SDS011;5409;42.620;23.316;2023-03-01T00:07:59;8.52;;;7.35;;
10715;SDS011;5409;42.620;23.316;2023-03-01T00:10:25;9.23;;;7.88;;
10715;SDS011;5409;42.620;23.316;2023-03-01T00:12:51;11.85;;;9.60;;
10715;SDS011;5409;42.620;23.316;2023-03-01T00:15:18;13.82;;;11.35;;
10715;SDS011;5409;42.620;23.316;2023-03-01T00:17:45;20.10;;;12.50;;
10715;SDS011;5409;42.620;23.316;2023-03-01T00:20:11;14.43;;;12.25;;
10715;SDS011;5409;42.620;23.316;2023-03-01T00:22:38;15.32;;;12.38;;
10715;SDS011;5409;42.620;23.316;2023-03-01T00:25:06;15.00;;;12.13;;
10715;SDS011;5409;42.620;23.316;2023-03-01T00:27:32;14.63;;;11.20;;
10715;SDS011;5409;42.620;23.316;2023-03-01T00:29:59;14.43;;;11.35;;
10715;SDS011;5409;42.620;23.316;2023-03-01T00:32:25;13.95;;;10.82;;
10715;SDS011;5409;42.620;23.316;2023-03-01T00:34:52;11.93;;;9.98;;
10715;SDS011;5409;42.620;23.316;2023-03-01T00:37:20;11.07;;;9.32;;
10715;SDS011;5409;42.620;23.316;2023-03-01T00:39:47;10.35;;;7.68;;
10715;SDS011;5409;42.620;23.316;2023-03-01T00:42:15;7.93;;;6.32;;
10715;SDS011;5409;42.620;23.316;2023-03-01T00:44:42;5.47;;;4.57;;
10715;SDS011;5409;42.620;23.316;2023-03-01T00:47:08;5.20;;;4.40;;
10715;SDS011;5409;42.620;23.316;2023-03-01T00:49:35;4.30;;;3.65;;
10715;SDS011;5409;42.620;23.316;2023-03-01T00:52:01;3.42;;;2.88;;
10715;SDS011;5409;42.620;23.316;2023-03-01T00:54:28;3.65;;;3.10;;
10715;SDS011;5409;42.620;23.316;2023-03-01T00:56:54;3.08;;;2.80;;
10715;SDS011;5409;42.620;23.316;2023-03-01T00:59:22;2.70;;;2.50;;
10715;SDS011;5409;42.620;23.316;2023-03-01T01:01:49;2.70;;;2.35;;
10715;SDS011;5409;42.620;23.316;2023-03-01T01:04:17;3.00;;;2.40;;
10715;SDS011;5409;42.620;23.316;2023-03-01T01:06:44;2.20;;;2.00;;
10715;SDS011;5409;42.620;23.316;2023-03-01T01:09:11;2.40;;;2.20;;
10715;SDS011;5409;42.620;23.316;2023-03-01T01:11:42;2.47;;;2.28;;
10715;SDS011;5409;42.620;23.316;2023-03-01T01:14:09;2.08;;;1.88;;
10715;SDS011;5409;42.620;23.316;2023-03-01T01:16:37;1.98;;;1.77;;
10715;SDS011;5409;42.620;23.316;2023-03-01T01:19:03;2.67;;;2.15;;
10715;SDS011;5409;42.620;23.316;2023-03-01T01:21:30;2.35;;;2.15;;
10715;SDS011;5409;42.620;23.316;2023-03-01T01:23:56;2.08;;;1.92;;
10715;SDS011;5409;42.620;23.316;2023-03-01T01:26:24;3.55;;;2.00;;
10715;SDS011;5409;42.620;23.316;2023-03-01T01:28:51;2.05;;;1.85;;
10715;SDS011;5409;42.620;23.316;2023-03-01T01:31:17;2.03;;;1.90;;
10715;SDS011;5409;42.620;23.316;2023-03-01T01:33:46;1.70;;;1.60;;
10715;SDS011;5409;42.620;23.316;2023-03-01T01:36:12;1.92;;;1.83;;
10715;SDS011;5409;42.620;23.316;2023-03-01T01:38:39;1.52;;;1.42;;
10715;SDS011;5409;42.620;23.316;2023-03-01T01:41:07;2.33;;;2.13;;
10715;SDS011;5409;42.620;23.316;2023-03-01T01:43:34;2.35;;;2.13;;
10715;SDS011;5409;42.620;23.316;2023-03-01T01:46:02;3.28;;;2.97;;
10715;SDS011;5409;42.620;23.316;2023-03-01T01:48:32;3.95;;;2.72;;
10715;SDS011;5409;42.620;23.316;2023-03-01T01:51:07;3.45;;;2.75;;
10715;SDS011;5409;42.620;23.316;2023-03-01T01:53:35;3.65;;;2.90;;
10715;SDS011;5409;42.620;23.316;2023-03-01T01:56:03;2.35;;;2.15;;
10715;SDS011;5409;42.620;23.316;2023-03-01T01:58:32;2.92;;;2.10;;
10715;SDS011;5409;42.620;23.316;2023-03-01T02:00:58;5.80;;;2.40;;
10715;SDS011;5409;42.620;23.316;2023-03-01T02:03:26;1.83;;;1.73;;
10715;SDS011;5409;42.620;23.316;2023-03-01T02:05:56;1.95;;;1.83;;
10715;SDS011;5409;42.620;23.316;2023-03-01T02:08:27;2.40;;;2.20;;
10715;SDS011;5409;42.620;23.316;2023-03-01T02:10:57;2.67;;;2.22;;
10715;SDS011;5409;42.620;23.316;2023-03-01T02:13:24;2.45;;;2.25;;
10715;SDS011;5409;42.620;23.316;2023-03-01T02:15:51;2.60;;;2.40;;
10715;SDS011;5409;42.620;23.316;2023-03-01T02:18:18;2.72;;;2.53;;
10715;SDS011;5409;42.620;23.316;2023-03-01T02:20:48;2.75;;;2.55;;
10715;SDS011;5409;42.620;23.316;2023-03-01T02:23:17;2.70;;;2.50;;
10715;SDS011;5409;42.620;23.316;2023-03-01T02:25:46;3.08;;;2.78;;
10715;SDS011;5409;42.620;23.316;2023-03-01T02:28:25;3.22;;;2.60;;
10715;SDS011;5409;42.620;23.316;2023-03-01T02:30:52;3.00;;;2.70;;
10715;SDS011;5409;42.620;23.316;2023-03-01T02:33:53;3.13;;;2.80;;
10715;SDS011;5409;42.620;23.316;2023-03-01T02:36:20;3.50;;;3.03;;
10715;SDS011;5409;42.620;23.316;2023-03-01T02:38:48;3.00;;;2.70;;
10715;SDS011;5409;42.620;23.316;2023-03-01T02:41:16;3.15;;;2.80;;
10715;SDS011;5409;42.620;23.316;2023-03-01T02:43:45;2.58;;;2.38;;
10715;SDS011;5409;42.620;23.316;2023-03-01T02:46:13;5.25;;;2.92;;
10715;SDS011;5409;42.620;23.316;2023-03-01T02:48:41;3.08;;;2.70;;
10715;SDS011;5409;42.620;23.316;2023-03-01T02:51:10;3.15;;;2.85;;
10715;SDS011;5409;42.620;23.316;2023-03-01T02:53:41;2.90;;;2.70;;
10715;SDS011;5409;42.620;23.316;2023-03-01T02:56:10;3.50;;;2.95;;
10715;SDS011;5409;42.620;23.316;2023-03-01T02:58:38;2.63;;;2.42;;
10715;SDS011;5409;42.620;23.316;2023-03-01T03:01:11;3.30;;;2.80;;
10715;SDS011;5409;42.620;23.316;2023-03-01T03:03:38;3.47;;;2.92;;
10715;SDS011;5409;42.620;23.316;2023-03-01T03:06:05;3.45;;;3.15;;
10715;SDS011;5409;42.620;23.316;2023-03-01T03:08:31;2.95;;;2.65;;
10715;SDS011;5409;42.620;23.316;2023-03-01T03:10:58;3.50;;;3.20;;
10715;SDS011;5409;42.620;23.316;2023-03-01T03:13:24;3.30;;;3.00;;
10715;SDS011;5409;42.620;23.316;2023-03-01T03:15:53;3.72;;;3.20;;
10715;SDS011;5409;42.620;23.316;2023-03-01T03:18:22;3.30;;;3.00;;
10715;SDS011;5409;42.620;23.316;2023-03-01T03:20:51;4.13;;;3.13;;
10715;SDS011;5409;42.620;23.316;2023-03-01T03:23:18;3.80;;;3.08;;
10715;SDS011;5409;42.620;23.316;2023-03-01T03:25:47;3.22;;;2.92;;
10715;SDS011;5409;42.620;23.316;2023-03-01T03:28:14;3.83;;;3.25;;
10715;SDS011;5409;42.620;23.316;2023-03-01T03:30:41;3.75;;;3.05;;
10715;SDS011;5409;42.620;23.316;2023-03-01T03:33:08;4.82;;;3.45;;
10715;SDS011;5409;42.620;23.316;2023-03-01T03:35:40;3.60;;;3.17;;
10715;SDS011;5409;42.620;23.316;2023-03-01T03:38:08;3.28;;;2.97;;
10715;SDS011;5409;42.620;23.316;2023-03-01T03:40:42;2.85;;;2.55;;
10715;SDS011;5409;42.620;23.316;2023-03-01T03:43:09;2.88;;;2.67;;
10715;SDS011;5409;42.620;23.316;2023-03-01T03:45:37;3.33;;;3.03;;
10715;SDS011;5409;42.620;23.316;2023-03-01T03:48:04;4.00;;;3.45;;
10715;SDS011;5409;42.620;23.316;2023-03-01T03:50:31;4.03;;;3.22;;
10715;SDS011;5409;42.620;23.316;2023-03-01T03:53:01;4.13;;;3.17;;
10715;SDS011;5409;42.620;23.316;2023-03-01T03:55:28;4.05;;;3.30;;
10715;SDS011;5409;42.620;23.316;2023-03-01T03:57:56;5.22;;;3.88;;
10715;SDS011;5409;42.620;23.316;2023-03-01T04:00:23;3.67;;;3.30;;
10715;SDS011;5409;42.620;23.316;2023-03-01T04:02:50;4.70;;;3.65;;
10715;SDS011;5409;42.620;23.316;2023-03-01T04:05:21;3.45;;;3.13;;
10715;SDS011;5409;42.620;23.316;2023-03-01T04:07:48;4.07;;;3.10;;
10715;SDS011;5409;42.620;23.316;2023-03-01T04:10:27;3.88;;;3.10;;
10715;SDS011;5409;42.620;23.316;2023-03-01T04:12:54;3.42;;;3.13;;
10715;SDS011;5409;42.620;23.316;2023-03-01T04:15:22;3.88;;;3.10;;
10715;SDS011;5409;42.620;23.316;2023-03-01T04:17:49;3.63;;;3.00;;
10715;SDS011;5409;42.620;23.316;2023-03-01T04:20:17;3.05;;;2.63;;
10715;SDS011;5409;42.620;23.316;2023-03-01T04:22:50;3.25;;;2.08;;
10715;SDS011;5409;42.620;23.316;2023-03-01T04:25:16;2.30;;;2.10;;
10715;SDS011;5409;42.620;23.316;2023-03-01T04:27:44;2.95;;;2.63;;
10715;SDS011;5409;42.620;23.316;2023-03-01T04:30:11;4.38;;;3.50;;
10715;SDS011;5409;42.620;23.316;2023-03-01T04:32:37;4.45;;;3.53;;
10715;SDS011;5409;42.620;23.316;2023-03-01T04:35:04;5.55;;;3.25;;
10715;SDS011;5409;42.620;23.316;2023-03-01T04:37:31;4.20;;;3.50;;
10715;SDS011;5409;42.620;23.316;2023-03-01T04:39:58;4.85;;;3.38;;
10715;SDS011;5409;42.620;23.316;2023-03-01T04:42:24;3.58;;;3.20;;
10715;SDS011;5409;42.620;23.316;2023-03-01T04:44:53;4.03;;;3.42;;
10715;SDS011;5409;42.620;23.316;2023-03-01T04:47:19;4.00;;;2.97;;
10715;SDS011;5409;42.620;23.316;2023-03-01T04:49:54;3.35;;;2.90;;
10715;SDS011;5409;42.620;23.316;2023-03-01T04:52:21;3.60;;;3.30;;
10715;SDS011;5409;42.620;23.316;2023-03-01T04:54:47;4.63;;;3.70;;
10715;SDS011;5409;42.620;23.316;2023-03-01T04:57:14;5.53;;;3.28;;
10715;SDS011;5409;42.620;23.316;2023-03-01T04:59:40;3.67;;;3.30;;
10715;SDS011;5409;42.620;23.316;2023-03-01T05:02:08;4.60;;;3.08;;
10715;SDS011;5409;42.620;23.316;2023-03-01T05:04:35;4.43;;;3.25;;
10715;SDS011;5409;42.620;23.316;2023-03-01T05:07:01;4.30;;;3.28;;
10715;SDS011;5409;42.620;23.316;2023-03-01T05:09:28;4.03;;;3.30;;
10715;SDS011;5409;42.620;23.316;2023-03-01T05:11:54;3.60;;;2.92;;
10715;SDS011;5409;42.620;23.316;2023-03-01T05:14:21;5.63;;;3.35;;
10715;SDS011;5409;42.620;23.316;2023-03-01T05:16:48;3.58;;;2.67;;
10715;SDS011;5409;42.620;23.316;2023-03-01T05:19:15;2.42;;;2.22;;
10715;SDS011;5409;42.620;23.316;2023-03-01T05:21:47;1.67;;;1.58;;
10715;SDS011;5409;42.620;23.316;2023-03-01T05:24:30;2.33;;;1.90;;
10715;SDS011;5409;42.620;23.316;2023-03-01T05:26:57;2.03;;;1.83;;
10715;SDS011;5409;42.620;23.316;2023-03-01T05:29:24;2.22;;;1.90;;
10715;SDS011;5409;42.620;23.316;2023-03-01T05:31:51;3.30;;;1.50;;
10715;SDS011;5409;42.620;23.316;2023-03-01T05:34:22;2.55;;;1.83;;
10715;SDS011;5409;42.620;23.316;2023-03-01T05:36:49;1.48;;;1.38;;
10715;SDS011;5409;42.620;23.316;2023-03-01T05:39:18;3.38;;;1.30;;
10715;SDS011;5409;42.620;23.316;2023-03-01T05:41:44;1.30;;;1.20;;
10715;SDS011;5409;42.620;23.316;2023-03-01T05:44:11;1.48;;;1.27;;
10715;SDS011;5409;42.620;23.316;2023-03-01T05:46:38;1.23;;;1.13;;
10715;SDS011;5409;42.620;23.316;2023-03-01T05:49:04;1.35;;;1.10;;
10715;SDS011;5409;42.620;23.316;2023-03-01T05:51:32;1.10;;;1.00;;
10715;SDS011;5409;42.620;23.316;2023-03-01T05:53:59;1.30;;;1.10;;
10715;SDS011;5409;42.620;23.316;2023-03-01T05:56:26;0.98;;;0.98;;
10715;SDS011;5409;42.620;23.316;2023-03-01T05:58:52;1.05;;;0.95;;
10715;SDS011;5409;42.620;23.316;2023-03-01T06:01:19;0.80;;;0.80;;
10715;SDS011;5409;42.620;23.316;2023-03-01T06:03:46;1.20;;;1.10;;
10715;SDS011;5409;42.620;23.316;2023-03-01T06:06:12;1.33;;;1.20;;
10715;SDS011;5409;42.620;23.316;2023-03-01T06:08:40;1.25;;;1.10;;
10715;SDS011;5409;42.620;23.316;2023-03-01T06:11:07;1.52;;;1.23;;
10715;SDS011;5409;42.620;23.316;2023-03-01T06:13:35;1.30;;;1.20;;
10715;SDS011;5409;42.620;23.316;2023-03-01T06:16:03;1.13;;;1.05;;
10715;SDS011;5409;42.620;23.316;2023-03-01T06:18:30;1.02;;;1.00;;
10715;SDS011;5409;42.620;23.316;2023-03-01T06:20:56;1.33;;;1.00;;
10715;SDS011;5409;42.620;23.316;2023-03-01T06:23:23;1.58;;;1.10;;
10715;SDS011;5409;42.620;23.316;2023-03-01T06:25:51;1.95;;;1.60;;
10715;SDS011;5409;42.620;23.316;2023-03-01T06:28:17;1.60;;;1.50;;
10715;SDS011;5409;42.620;23.316;2023-03-01T06:30:44;1.80;;;1.50;;
10715;SDS011;5409;42.620;23.316;2023-03-01T06:33:11;2.20;;;2.00;;
10715;SDS011;5409;42.620;23.316;2023-03-01T06:35:38;2.92;;;2.55;;
10715;SDS011;5409;42.620;23.316;2023-03-01T06:38:04;4.70;;;2.95;;
10715;SDS011;5409;42.620;23.316;2023-03-01T06:40:31;3.55;;;2.60;;
10715;SDS011;5409;42.620;23.316;2023-03-01T06:43:01;5.00;;;3.15;;
10715;SDS011;5409;42.620;23.316;2023-03-01T06:45:28;4.78;;;3.13;;
10715;SDS011;5409;42.620;23.316;2023-03-01T06:48:00;3.22;;;2.65;;
10715;SDS011;5409;42.620;23.316;2023-03-01T06:50:27;2.60;;;2.20;;
10715;SDS011;5409;42.620;23.316;2023-03-01T06:52:55;3.03;;;2.72;;
10715;SDS011;5409;42.620;23.316;2023-03-01T06:55:21;2.08;;;1.88;;
10715;SDS011;5409;42.620;23.316;2023-03-01T06:57:48;2.58;;;2.20;;
10715;SDS011;5409;42.620;23.316;2023-03-01T07:00:16;3.20;;;2.30;;
10715;SDS011;5409;42.620;23.316;2023-03-01T07:02:43;3.33;;;2.03;;
10715;SDS011;5409;42.620;23.316;2023-03-01T07:05:09;1.98;;;1.83;;
10715;SDS011;5409;42.620;23.316;2023-03-01T07:07:36;2.30;;;2.10;;
10715;SDS011;5409;42.620;23.316;2023-03-01T07:10:02;2.00;;;1.80;;
10715;SDS011;5409;42.620;23.316;2023-03-01T07:12:29;2.53;;;1.92;;
10715;SDS011;5409;42.620;23.316;2023-03-01T07:14:56;2.75;;;1.90;;
10715;SDS011;5409;42.620;23.316;2023-03-01T07:17:24;2.55;;;2.35;;
10715;SDS011;5409;42.620;23.316;2023-03-01T07:19:50;3.20;;;2.15;;
10715;SDS011;5409;42.620;23.316;2023-03-01T07:22:17;2.95;;;2.47;;
10715;SDS011;5409;42.620;23.316;2023-03-01T07:24:43;3.17;;;2.38;;
10715;SDS011;5409;42.620;23.316;2023-03-01T07:27:10;2.30;;;2.10;;
10715;SDS011;5409;42.620;23.316;2023-03-01T07:29:36;2.92;;;2.38;;
10715;SDS011;5409;42.620;23.316;2023-03-01T07:32:03;2.50;;;2.05;;
10715;SDS011;5409;42.620;23.316;2023-03-01T07:34:31;2.22;;;1.85;;
10715;SDS011;5409;42.620;23.316;2023-03-01T07:36:58;4.35;;;2.10;;
10715;SDS011;5409;42.620;23.316;2023-03-01T07:39:24;2.10;;;1.77;;
10715;SDS011;5409;42.620;23.316;2023-03-01T07:41:51;1.95;;;1.75;;
10715;SDS011;5409;42.620;23.316;2023-03-01T07:44:17;2.08;;;1.92;;
10715;SDS011;5409;42.620;23.316;2023-03-01T07:46:45;1.77;;;1.67;;
10715;SDS011;5409;42.620;23.316;2023-03-01T07:49:11;2.67;;;1.88;;
10715;SDS011;5409;42.620;23.316;2023-03-01T07:51:39;2.13;;;1.70;;
10715;SDS011;5409;42.620;23.316;2023-03-01T07:54:07;2.20;;;1.65;;
10715;SDS011;5409;42.620;23.316;2023-03-01T07:56:33;2.05;;;1.35;;
10715;SDS011;5409;42.620;23.316;2023-03-01T07:59:00;4.32;;;1.60;;
10715;SDS011;5409;42.620;23.316;2023-03-01T08:01:26;2.28;;;1.90;;
10715;SDS011;5409;42.620;23.316;2023-03-01T08:03:53;2.65;;;2.13;;
10715;SDS011;5409;42.620;23.316;2023-03-01T08:06:19;3.90;;;2.70;;
10715;SDS011;5409;42.620;23.316;2023-03-01T08:08:47;2.88;;;2.65;;
10715;SDS011;5409;42.620;23.316;2023-03-01T08:11:14;3.95;;;2.97;;
10715;SDS011;5409;42.620;23.316;2023-03-01T08:13:41;3.45;;;2.63;;
10715;SDS011;5409;42.620;23.316;2023-03-01T08:16:08;3.83;;;2.95;;
10715;SDS011;5409;42.620;23.316;2023-03-01T08:18:34;3.30;;;2.92;;
10715;SDS011;5409;42.620;23.316;2023-03-01T08:21:02;5.50;;;2.47;;
10715;SDS011;5409;42.620;23.316;2023-03-01T08:23:28;2.75;;;2.47;;
10715;SDS011;5409;42.620;23.316;2023-03-01T08:26:03;2.88;;;2.42;;
10715;SDS011;5409;42.620;23.316;2023-03-01T08:28:31;3.58;;;3.05;;
10715;SDS011;5409;42.620;23.316;2023-03-01T08:30:57;1.90;;;1.80;;
10715;SDS011;5409;42.620;23.316;2023-03-01T08:33:24;2.85;;;2.55;;
10715;SDS011;5409;42.620;23.316;2023-03-01T08:35:50;3.33;;;3.03;;
10715;SDS011;5409;42.620;23.316;2023-03-01T08:38:17;3.10;;;2.50;;
10715;SDS011;5409;42.620;23.316;2023-03-01T08:40:43;2.20;;;1.95;;
10715;SDS011;5409;42.620;23.316;2023-03-01T08:43:11;2.28;;;2.10;;
10715;SDS011;5409;42.620;23.316;2023-03-01T08:45:37;2.28;;;2.08;;
10715;SDS011;5409;42.620;23.316;2023-03-01T08:48:04;2.67;;;2.35;;
10715;SDS011;5409;42.620;23.316;2023-03-01T08:50:31;4.35;;;2.00;;
10715;SDS011;5409;42.620;23.316;2023-03-01T08:52:57;2.42;;;2.17;;
10715;SDS011;5409;42.620;23.316;2023-03-01T08:55:24;5.47;;;2.22;;
10715;SDS011;5409;42.620;23.316;2023-03-01T08:57:50;3.28;;;2.13;;
10715;SDS011;5409;42.620;23.316;2023-03-01T09:00:19;2.55;;;2.20;;
10715;SDS011;5409;42.620;23.316;2023-03-01T09:02:45;2.30;;;2.10;;
10715;SDS011;5409;42.620;23.316;2023-03-01T09:05:12;2.83;;;2.45;;
10715;SDS011;5409;42.620;23.316;2023-03-01T09:07:38;3.13;;;2.38;;
10715;SDS011;5409;42.620;23.316;2023-03-01T09:10:05;4.30;;;2.45;;
10715;SDS011;5409;42.620;23.316;2023-03-01T09:12:32;3.80;;;3.20;;
10715;SDS011;5409;42.620;23.316;2023-03-01T09:14:58;3.45;;;3.00;;
10715;SDS011;5409;42.620;23.316;2023-03-01T09:17:26;3.13;;;2.80;;
10715;SDS011;5409;42.620;23.316;2023-03-01T09:19:53;2.58;;;2.38;;
10715;SDS011;5409;42.620;23.316;2023-03-01T09:22:19;6.55;;;2.17;;
10715;SDS011;5409;42.620;23.316;2023-03-01T09:24:46;2.38;;;1.90;;
10715;SDS011;5409;42.620;23.316;2023-03-01T09:27:12;2.00;;;1.60;;
10715;SDS011;5409;42.620;23.316;2023-03-01T09:29:39;2.42;;;2.10;;
10715;SDS011;5409;42.620;23.316;2023-03-01T09:32:06;2.70;;;2.45;;
10715;SDS011;5409;42.620;23.316;2023-03-01T09:34:34;2.50;;;2.30;;
10715;SDS011;5409;42.620;23.316;2023-03-01T09:37:21;2.88;;;2.40;;
10715;SDS011;5409;42.620;23.316;2023-03-01T09:39:47;2.25;;;2.03;;
10715;SDS011;5409;42.620;23.316;2023-03-01T09:42:14;2.40;;;2.20;;
10715;SDS011;5409;42.620;23.316;2023-03-01T09:44:42;2.10;;;1.90;;
10715;SDS011;5409;42.620;23.316;2023-03-01T09:47:12;2.58;;;2.10;;
10715;SDS011;5409;42.620;23.316;2023-03-01T09:49:42;4.60;;;2.50;;
10715;SDS011;5409;42.620;23.316;2023-03-01T09:52:16;7.90;;;2.55;;
10715;SDS011;5409;42.620;23.316;2023-03-01T09:54:46;2.30;;;2.10;;
10715;SDS011;5409;42.620;23.316;2023-03-01T09:57:17;3.15;;;2.50;;
10715;SDS011;5409;42.620;23.316;2023-03-01T09:59:51;3.60;;;3.10;;
10715;SDS011;5409;42.620;23.316;2023-03-01T10:02:23;5.00;;;2.83;;
10715;SDS011;5409;42.620;23.316;2023-03-01T10:04:54;2.70;;;2.50;;
10715;SDS011;5409;42.620;23.316;2023-03-01T10:07:27;2.80;;;2.20;;
10715;SDS011;5409;42.620;23.316;2023-03-01T10:09:55;3.33;;;2.80;;
10715;SDS011;5409;42.620;23.316;2023-03-01T10:12:22;3.25;;;2.92;;
10715;SDS011;5409;42.620;23.316;2023-03-01T10:14:51;3.30;;;3.00;;
10715;SDS011;5409;42.620;23.316;2023-03-01T10:17:24;3.63;;;2.60;;
10715;SDS011;5409;42.620;23.316;2023-03-01T10:19:51;3.13;;;2.60;;
10715;SDS011;5409;42.620;23.316;2023-03-01T10:22:20;2.92;;;2.63;;
10715;SDS011;5409;42.620;23.316;2023-03-01T10:24:47;2.95;;;2.50;;
10715;SDS011;5409;42.620;23.316;2023-03-01T10:27:15;2.35;;;2.15;;
10715;SDS011;5409;42.620;23.316;2023-03-01T10:29:46;2.40;;;2.20;;
10715;SDS011;5409;42.620;23.316;2023-03-01T10:32:14;2.90;;;2.70;;
10715;SDS011;5409;42.620;23.316;2023-03-01T10:34:41;3.50;;;2.92;;
10715;SDS011;5409;42.620;23.316;2023-03-01T10:37:11;4.13;;;2.50;;
10715;SDS011;5409;42.620;23.316;2023-03-01T10:42:36;3.25;;;2.95;;
10715;SDS011;5409;42.620;23.316;2023-03-01T10:45:19;3.22;;;2.92;;
10715;SDS011;5409;42.620;23.316;2023-03-01T10:47:53;3.08;;;2.72;;
10715;SDS011;5409;42.620;23.316;2023-03-01T10:50:29;4.97;;;3.10;;
10715;SDS011;5409;42.620;23.316;2023-03-01T10:52:56;3.28;;;2.97;;
10715;SDS011;5409;42.620;23.316;2023-03-01T10:55:24;6.53;;;2.90;;
10715;SDS011;5409;42.620;23.316;2023-03-01T10:58:05;4.78;;;2.72;;
10715;SDS011;5409;42.620;23.316;2023-03-01T11:00:32;3.90;;;3.25;;
10715;SDS011;5409;42.620;23.316;2023-03-01T11:03:03;4.40;;;3.30;;
10715;SDS011;5409;42.620;23.316;2023-03-01T11:05:35;5.47;;;3.42;;
10715;SDS011;5409;42.620;23.316;2023-03-01T11:08:03;6.45;;;3.17;;
10715;SDS011;5409;42.620;23.316;2023-03-01T11:10:30;4.28;;;3.55;;
10715;SDS011;5409;42.620;23.316;2023-03-01T11:13:07;4.35;;;3.03;;
10715;SDS011;5409;42.620;23.316;2023-03-01T11:15:34;3.40;;;3.10;;
10715;SDS011;5409;42.620;23.316;2023-03-01T11:18:01;3.65;;;2.78;;
10715;SDS011;5409;42.620;23.316;2023-03-01T11:20:29;3.55;;;3.25;;
10715;SDS011;5409;42.620;23.316;2023-03-01T11:22:58;4.32;;;3.13;;
10715;SDS011;5409;42.620;23.316;2023-03-01T11:25:26;4.97;;;3.78;;
10715;SDS011;5409;42.620;23.316;2023-03-01T11:27:54;4.40;;;3.67;;
10715;SDS011;5409;42.620;23.316;2023-03-01T11:30:24;7.22;;;5.15;;
10715;SDS011;5409;42.620;23.316;2023-03-01T11:32:55;7.43;;;3.97;;
10715;SDS011;5409;42.620;23.316;2023-03-01T11:35:23;6.95;;;5.40;;
10715;SDS011;5409;42.620;23.316;2023-03-01T11:37:56;10.10;;;5.10;;
10715;SDS011;5409;42.620;23.316;2023-03-01T11:40:26;5.72;;;4.18;;
10715;SDS011;5409;42.620;23.316;2023-03-01T11:42:56;5.00;;;4.15;;
10715;SDS011;5409;42.620;23.316;2023-03-01T11:45:26;5.43;;;3.30;;
10715;SDS011;5409;42.620;23.316;2023-03-01T11:47:59;4.13;;;3.72;;
10715;SDS011;5409;42.620;23.316;2023-03-01T11:50:33;4.43;;;3.65;;
10715;SDS011;5409;42.620;23.316;2023-03-01T11:53:04;4.20;;;3.80;;
10715;SDS011;5409;42.620;23.316;2023-03-01T11:55:46;5.70;;;3.85;;
10715;SDS011;5409;42.620;23.316;2023-03-01T11:58:19;3.97;;;3.58;;
10715;SDS011;5409;42.620;23.316;2023-03-01T12:01:00;5.82;;;4.18;;
10715;SDS011;5409;42.620;23.316;2023-03-01T12:03:33;4.93;;;4.15;;
10715;SDS011;5409;42.620;23.316;2023-03-01T12:06:14;4.93;;;3.83;;
10715;SDS011;5409;42.620;23.316;2023-03-01T12:08:50;4.40;;;4.00;;
10715;SDS011;5409;42.620;23.316;2023-03-01T12:11:21;5.85;;;4.18;;
10715;SDS011;5409;42.620;23.316;2023-03-01T12:13:57;4.20;;;3.80;;
10715;SDS011;5409;42.620;23.316;2023-03-01T12:16:31;5.32;;;3.67;;
10715;SDS011;5409;42.620;23.316;2023-03-01T12:19:22;4.35;;;3.08;;
10715;SDS011;5409;42.620;23.316;2023-03-01T12:21:55;3.28;;;2.97;;
10715;SDS011;5409;42.620;23.316;2023-03-01T12:24:30;4.75;;;3.78;;
10715;SDS011;5409;42.620;23.316;2023-03-01T12:27:10;4.05;;;3.58;;
10715;SDS011;5409;42.620;23.316;2023-03-01T12:29:39;3.85;;;3.45;;
10715;SDS011;5409;42.620;23.316;2023-03-01T12:32:23;4.15;;;3.13;;
10715;SDS011;5409;42.620;23.316;2023-03-01T12:34:59;3.70;;;3.20;;
10715;SDS011;5409;42.620;23.316;2023-03-01T12:37:34;5.28;;;3.28;;
10715;SDS011;5409;42.620;23.316;2023-03-01T12:40:17;5.20;;;3.20;;
10715;SDS011;5409;42.620;23.316;2023-03-01T12:42:48;3.63;;;3.05;;
10715;SDS011;5409;42.620;23.316;2023-03-01T12:45:38;3.45;;;3.15;;
10715;SDS011;5409;42.620;23.316;2023-03-01T12:48:12;3.20;;;2.90;;
10715;SDS011;5409;42.620;23.316;2023-03-01T12:50:44;3.50;;;3.20;;
10715;SDS011;5409;42.620;23.316;2023-03-01T12:53:17;3.53;;;3.22;;
10715;SDS011;5409;42.620;23.316;2023-03-01T12:55:46;3.40;;;3.10;;
10715;SDS011;5409;42.620;23.316;2023-03-01T12:58:16;3.40;;;3.05;;
10715;SDS011;5409;42.620;23.316;2023-03-01T13:00:52;3.55;;;3.20;;
10715;SDS011;5409;42.620;23.316;2023-03-01T13:03:25;3.28;;;2.95;;
10715;SDS011;5409;42.620;23.316;2023-03-01T13:05:56;5.10;;;3.22;;
10715;SDS011;5409;42.620;23.316;2023-03-01T13:08:29;3.95;;;2.80;;
10715;SDS011;5409;42.620;23.316;2023-03-01T13:10:58;3.92;;;3.15;;
10715;SDS011;5409;42.620;23.316;2023-03-01T13:13:26;3.70;;;3.40;;
10715;SDS011;5409;42.620;23.316;2023-03-01T13:15:53;4.25;;;3.50;;
10715;SDS011;5409;42.620;23.316;2023-03-01T13:18:31;3.83;;;3.25;;
10715;SDS011;5409;42.620;23.316;2023-03-01T13:20:59;3.50;;;3.20;;
10715;SDS011;5409;42.620;23.316;2023-03-01T13:23:27;4.35;;;3.35;;
10715;SDS011;5409;42.620;23.316;2023-03-01T13:26:05;3.60;;;3.28;;
10715;SDS011;5409;42.620;23.316;2023-03-01T13:34:08;4.78;;;3.85;;
10715;SDS011;5409;42.620;23.316;2023-03-01T13:36:54;3.75;;;3.03;;
10715;SDS011;5409;42.620;23.316;2023-03-01T13:39:39;5.63;;;3.80;;
10715;SDS011;5409;42.620;23.316;2023-03-01T13:42:25;6.13;;;3.80;;
10715;SDS011;5409;42.620;23.316;2023-03-01T13:44:53;4.15;;;3.70;;
10715;SDS011;5409;42.620;23.316;2023-03-01T13:47:20;5.50;;;4.22;;
10715;SDS011;5409;42.620;23.316;2023-03-01T13:49:49;12.07;;;6.88;;
10715;SDS011;5409;42.620;23.316;2023-03-01T13:52:35;18.42;;;11.00;;
10715;SDS011;5409;42.620;23.316;2023-03-01T13:55:05;11.90;;;7.95;;
10715;SDS011;5409;42.620;23.316;2023-03-01T13:57:33;10.57;;;6.00;;
10715;SDS011;5409;42.620;23.316;2023-03-01T14:00:00;5.40;;;4.65;;
10715;SDS011;5409;42.620;23.316;2023-03-01T14:02:27;4.13;;;3.72;;
10715;SDS011;5409;42.620;23.316;2023-03-01T14:04:59;6.25;;;3.47;;
10715;SDS011;5409;42.620;23.316;2023-03-01T14:07:26;6.95;;;4.15;;
10715;SDS011;5409;42.620;23.316;2023-03-01T14:09:54;4.35;;;3.53;;
10715;SDS011;5409;42.620;23.316;2023-03-01T14:12:25;3.60;;;3.30;;
10715;SDS011;5409;42.620;23.316;2023-03-01T14:14:54;4.38;;;3.20;;
10715;SDS011;5409;42.620;23.316;2023-03-01T14:17:29;4.15;;;3.70;;
10715;SDS011;5409;42.620;23.316;2023-03-01T14:20:00;4.82;;;3.63;;
10715;SDS011;5409;42.620;23.316;2023-03-01T14:22:30;4.60;;;3.38;;
10715;SDS011;5409;42.620;23.316;2023-03-01T14:24:58;3.88;;;3.30;;
10715;SDS011;5409;42.620;23.316;2023-03-01T14:27:26;4.72;;;3.70;;
10715;SDS011;5409;42.620;23.316;2023-03-01T14:29:56;4.20;;;3.75;;
10715;SDS011;5409;42.620;23.316;2023-03-01T14:32:24;4.60;;;3.72;;
10715;SDS011;5409;42.620;23.316;2023-03-01T14:34:51;4.50;;;2.92;;
10715;SDS011;5409;42.620;23.316;2023-03-01T14:37:20;5.00;;;3.72;;
10715;SDS011;5409;42.620;23.316;2023-03-01T14:39:47;3.90;;;3.45;;
10715;SDS011;5409;42.620;23.316;2023-03-01T14:42:14;5.03;;;3.92;;
10715;SDS011;5409;42.620;23.316;2023-03-01T14:44:41;4.72;;;3.60;;
10715;SDS011;5409;42.620;23.316;2023-03-01T14:47:10;5.85;;;3.78;;
10715;SDS011;5409;42.620;23.316;2023-03-01T14:49:37;5.03;;;4.07;;
10715;SDS011;5409;42.620;23.316;2023-03-01T14:52:04;5.30;;;3.78;;
10715;SDS011;5409;42.620;23.316;2023-03-01T14:54:35;7.50;;;5.13;;
10715;SDS011;5409;42.620;23.316;2023-03-01T14:57:03;5.13;;;4.38;;
10715;SDS011;5409;42.620;23.316;2023-03-01T14:59:30;5.85;;;3.40;;
10715;SDS011;5409;42.620;23.316;2023-03-01T15:01:59;5.28;;;4.00;;
10715;SDS011;5409;42.620;23.316;2023-03-01T15:04:26;6.63;;;3.85;;